Time,TemperatureF,DewpointF,PressureIn,WindDirection,WindDirectionDegrees,WindSpeedMPH,WindSpeedGustMPH,Humidity,HourlyPrecipIn,Conditions,Clouds,dailyrainin,SoftwareType,DateUTC
2014-01-15 00:01:00,30.6,13.2,28.73,WSW,249,0.0,2.7,48,0.00,,---,0.00,VWS V14.01,2014-01-15 06:01:00,
2014-01-15 00:06:00,30.2,13.4,28.73,WSW,249,0.0,3.6,49,0.00,,---,0.00,VWS V14.01,2014-01-15 06:06:00,
2014-01-15 00:11:00,30.2,13.4,28.73,WSW,244,2.2,3.6,49,0.00,,---,0.00,VWS V14.01,2014-01-15 06:11:00,
2014-01-15 00:16:00,30.0,13.6,28.73,West,274,5.4,5.4,50,0.00,,---,0.00,VWS V14.01,2014-01-15 06:16:00,
2014-01-15 00:22:00,30.0,14.1,28.73,West,261,3.1,5.4,51,0.00,,---,0.00,VWS V14.01,2014-01-15 06:22:00,
2014-01-15 00:27:00,29.8,13.9,28.73,West,262,3.6,5.4,51,0.00,,---,0.00,VWS V14.01,2014-01-15 06:27:00,
2014-01-15 00:32:00,29.8,14.4,28.73,West,260,3.6,5.8,52,0.00,,---,0.00,VWS V14.01,2014-01-15 06:32:00,
2014-01-15 00:37:00,29.8,14.4,28.73,West,266,4.0,6.3,52,0.00,,---,0.00,VWS V14.01,2014-01-15 06:37:00,
2014-01-15 00:42:00,30.0,15.0,28.73,WSW,258,3.1,6.3,53,0.00,,---,0.00,VWS V14.01,2014-01-15 06:42:00,
2014-01-15 00:47:00,30.0,15.0,28.73,WSW,245,0.0,6.3,53,0.00,,---,0.00,VWS V14.01,2014-01-15 06:47:00,
2014-01-15 00:52:00,30.0,15.0,28.73,WSW,243,0.0,6.3,53,0.00,,---,0.00,VWS V14.01,2014-01-15 06:52:00,
2014-01-15 00:57:00,29.8,14.8,28.70,WSW,240,3.1,6.3,53,0.00,,---,0.00,VWS V14.01,2014-01-15 06:57:00,
2014-01-15 01:02:00,29.8,14.8,28.70,WSW,256,2.7,5.4,53,0.00,,---,0.00,VWS V14.01,2014-01-15 07:02:00,
2014-01-15 01:07:00,29.7,14.6,28.70,WSW,255,2.7,5.4,53,0.00,,---,0.00,VWS V14.01,2014-01-15 07:07:00,
2014-01-15 01:13:00,29.5,14.5,28.70,WSW,256,0.0,5.4,53,0.00,,---,0.00,VWS V14.01,2014-01-15 07:13:00,
2014-01-15 01:18:00,29.5,14.5,28.70,WSW,256,0.0,5.4,53,0.00,,---,0.00,VWS V14.01,2014-01-15 07:18:00,
2014-01-15 01:23:00,29.3,14.3,28.70,WSW,256,0.0,5.4,53,0.00,,---,0.00,VWS V14.01,2014-01-15 07:23:00,
2014-01-15 01:28:00,28.9,14.0,28.70,WSW,256,0.0,5.4,53,0.00,,---,0.00,VWS V14.01,2014-01-15 07:28:00,
2014-01-15 01:33:00,28.6,14.1,28.70,WSW,256,0.0,5.4,54,0.00,,---,0.00,VWS V14.01,2014-01-15 07:33:00,
2014-01-15 01:38:00,28.2,13.7,28.70,WSW,256,0.0,5.4,54,0.00,,---,0.00,VWS V14.01,2014-01-15 07:38:00,
2014-01-15 01:43:00,28.0,13.6,28.70,WSW,256,0.0,5.4,54,0.00,,---,0.00,VWS V14.01,2014-01-15 07:43:00,
2014-01-15 01:48:00,27.9,13.8,28.70,WSW,256,0.0,5.4,55,0.00,,---,0.00,VWS V14.01,2014-01-15 07:48:00,
2014-01-15 01:53:00,27.9,14.2,28.70,WSW,256,0.0,5.4,56,0.00,,---,0.00,VWS V14.01,2014-01-15 07:53:00,
2014-01-15 01:58:00,27.7,14.4,28.70,WSW,245,2.2,5.4,57,0.00,,---,0.00,VWS V14.01,2014-01-15 07:58:00,
2014-01-15 02:04:00,27.7,14.9,28.70,SW,236,2.7,4.5,58,0.00,,---,0.00,VWS V14.01,2014-01-15 08:04:00,
2014-01-15 02:09:00,27.7,14.9,28.70,WSW,245,4.0,4.9,58,0.00,,---,0.00,VWS V14.01,2014-01-15 08:09:00,
2014-01-15 02:14:00,27.5,15.1,28.70,WSW,239,2.7,5.4,59,0.00,,---,0.00,VWS V14.01,2014-01-15 08:14:00,
2014-01-15 02:19:00,27.5,15.1,28.70,WSW,252,3.6,5.4,59,0.00,,---,0.00,VWS V14.01,2014-01-15 08:19:00,
2014-01-15 02:24:00,27.3,14.9,28.70,WSW,250,2.7,5.4,59,0.00,,---,0.00,VWS V14.01,2014-01-15 08:24:00,
2014-01-15 02:29:00,27.3,14.9,28.70,WSW,250,0.0,5.4,59,0.00,,---,0.00,VWS V14.01,2014-01-15 08:29:00,
2014-01-15 02:34:00,27.1,14.7,28.70,SW,236,3.6,5.4,59,0.00,,---,0.00,VWS V14.01,2014-01-15 08:34:00,
2014-01-15 02:39:00,27.0,15.3,28.70,WSW,242,0.0,5.4,61,0.00,,---,0.00,VWS V14.01,2014-01-15 08:39:00,
2014-01-15 02:44:00,26.8,15.1,28.70,WSW,242,2.2,5.4,61,0.00,,---,0.00,VWS V14.01,2014-01-15 08:44:00,
2014-01-15 02:49:00,26.6,15.0,28.70,WSW,242,0.0,5.4,61,0.00,,---,0.00,VWS V14.01,2014-01-15 08:49:00,
2014-01-15 02:55:00,26.4,14.8,28.70,WSW,243,0.0,5.4,61,0.00,,---,0.00,VWS V14.01,2014-01-15 08:55:00,
2014-01-15 03:00:00,26.2,14.6,28.70,WSW,245,2.2,5.4,61,0.00,,---,0.00,VWS V14.01,2014-01-15 09:00:00,
2014-01-15 03:05:00,26.1,14.5,28.70,WSW,245,0.0,4.0,61,0.00,,---,0.00,VWS V14.01,2014-01-15 09:05:00,
2014-01-15 03:10:00,25.9,14.7,28.70,West,268,4.0,4.0,62,0.00,,---,0.00,VWS V14.01,2014-01-15 09:10:00,
2014-01-15 03:15:00,25.7,14.5,28.70,West,268,0.0,4.0,62,0.00,,---,0.00,VWS V14.01,2014-01-15 09:15:00,
2014-01-15 03:20:00,25.5,14.3,28.70,West,268,0.0,4.0,62,0.00,,---,0.00,VWS V14.01,2014-01-15 09:20:00,
2014-01-15 03:25:00,25.3,14.2,28.70,West,265,0.0,4.0,62,0.00,,---,0.00,VWS V14.01,2014-01-15 09:25:00,
2014-01-15 03:30:00,25.2,14.0,28.70,West,263,0.0,4.0,62,0.00,,---,0.00,VWS V14.01,2014-01-15 09:30:00,
2014-01-15 03:35:00,25.0,13.8,28.70,West,263,0.0,4.0,62,0.00,,---,0.00,VWS V14.01,2014-01-15 09:35:00,
2014-01-15 03:41:00,24.6,13.5,28.70,West,263,0.0,4.0,62,0.00,,---,0.00,VWS V14.01,2014-01-15 09:41:00,
2014-01-15 03:46:00,24.4,13.3,28.70,West,263,0.0,4.0,62,0.00,,---,0.00,VWS V14.01,2014-01-15 09:46:00,
2014-01-15 03:51:00,24.3,13.5,28.70,West,263,0.0,4.0,63,0.00,,---,0.00,VWS V14.01,2014-01-15 09:51:00,
2014-01-15 03:56:00,24.3,13.5,28.70,West,263,0.0,4.0,63,0.00,,---,0.00,VWS V14.01,2014-01-15 09:56:00,
2014-01-15 04:01:00,24.1,13.3,28.70,West,263,0.0,0.0,63,0.00,,---,0.00,VWS V14.01,2014-01-15 10:01:00,
2014-01-15 04:06:00,24.1,13.3,28.70,West,263,0.0,0.0,63,0.00,,---,0.00,VWS V14.01,2014-01-15 10:06:00,
2014-01-15 04:11:00,23.9,13.1,28.67,West,263,0.0,0.0,63,0.00,,---,0.00,VWS V14.01,2014-01-15 10:11:00,
2014-01-15 04:16:00,23.9,13.5,28.67,West,263,0.0,0.0,64,0.00,,---,0.00,VWS V14.01,2014-01-15 10:16:00,
2014-01-15 04:21:00,23.9,13.5,28.67,West,263,0.0,0.0,64,0.00,,---,0.00,VWS V14.01,2014-01-15 10:21:00,
2014-01-15 04:26:00,23.9,13.9,28.70,West,263,0.0,0.0,65,0.00,,---,0.00,VWS V14.01,2014-01-15 10:26:00,
2014-01-15 04:32:00,23.7,13.7,28.70,West,263,0.0,0.0,65,0.00,,---,0.00,VWS V14.01,2014-01-15 10:32:00,
2014-01-15 04:37:00,23.7,13.7,28.70,West,263,0.0,0.0,65,0.00,,---,0.00,VWS V14.01,2014-01-15 10:37:00,
2014-01-15 04:42:00,23.5,13.9,28.67,West,263,0.0,0.0,66,0.00,,---,0.00,VWS V14.01,2014-01-15 10:42:00,
2014-01-15 04:47:00,23.4,13.7,28.67,West,263,0.0,0.0,66,0.00,,---,0.00,VWS V14.01,2014-01-15 10:47:00,
2014-01-15 04:52:00,23.4,13.7,28.67,West,263,0.0,0.0,66,0.00,,---,0.00,VWS V14.01,2014-01-15 10:52:00,
2014-01-15 04:57:00,23.4,14.0,28.67,West,263,0.0,0.0,67,0.00,,---,0.00,VWS V14.01,2014-01-15 10:57:00,
2014-01-15 05:02:00,23.4,14.0,28.67,West,263,0.0,0.0,67,0.00,,---,0.00,VWS V14.01,2014-01-15 11:02:00,
2014-01-15 05:08:00,23.4,14.0,28.67,West,263,0.0,0.0,67,0.00,,---,0.00,VWS V14.01,2014-01-15 11:08:00,
2014-01-15 05:13:00,23.2,14.2,28.67,West,263,0.0,0.0,68,0.00,,---,0.00,VWS V14.01,2014-01-15 11:13:00,
2014-01-15 05:18:00,23.2,14.2,28.67,West,263,0.0,0.0,68,0.00,,---,0.00,VWS V14.01,2014-01-15 11:18:00,
2014-01-15 05:23:00,23.4,14.7,28.67,West,263,0.0,0.0,69,0.00,,---,0.00,VWS V14.01,2014-01-15 11:23:00,
2014-01-15 05:28:00,23.4,14.7,28.67,West,263,0.0,0.0,69,0.00,,---,0.00,VWS V14.01,2014-01-15 11:28:00,
2014-01-15 05:33:00,23.4,14.7,28.67,West,263,0.0,0.0,69,0.00,,---,0.00,VWS V14.01,2014-01-15 11:33:00,
2014-01-15 05:38:00,23.2,14.5,28.67,West,263,0.0,0.0,69,0.00,,---,0.00,VWS V14.01,2014-01-15 11:38:00,
2014-01-15 05:43:00,22.8,14.5,28.67,West,263,0.0,0.0,70,0.00,,---,0.00,VWS V14.01,2014-01-15 11:43:00,
2014-01-15 05:48:00,22.6,14.3,28.67,West,263,0.0,0.0,70,0.00,,---,0.00,VWS V14.01,2014-01-15 11:48:00,
2014-01-15 05:54:00,22.3,14.0,28.67,West,263,0.0,0.0,70,0.00,,---,0.00,VWS V14.01,2014-01-15 11:54:00,
2014-01-15 05:59:00,22.1,13.8,28.67,West,263,0.0,0.0,70,0.00,,---,0.00,VWS V14.01,2014-01-15 11:59:00,
2014-01-15 06:04:00,21.9,13.6,28.67,West,263,0.0,0.0,70,0.00,,---,0.00,VWS V14.01,2014-01-15 12:04:00,
2014-01-15 06:09:00,21.6,13.3,28.67,West,263,0.0,0.0,70,0.00,,---,0.00,VWS V14.01,2014-01-15 12:09:00,
2014-01-15 06:14:00,21.4,13.1,28.67,West,263,0.0,0.0,70,0.00,,---,0.00,VWS V14.01,2014-01-15 12:14:00,
2014-01-15 06:19:00,21.2,13.0,28.67,West,263,0.0,0.0,70,0.00,,---,0.00,VWS V14.01,2014-01-15 12:19:00,
2014-01-15 06:24:00,21.2,13.0,28.67,West,263,0.0,0.0,70,0.00,,---,0.00,VWS V14.01,2014-01-15 12:24:00,
2014-01-15 06:29:00,21.0,13.1,28.67,West,263,0.0,0.0,71,0.00,,---,0.00,VWS V14.01,2014-01-15 12:29:00,
2014-01-15 06:34:00,20.8,12.9,28.67,West,263,0.0,0.0,71,0.00,,---,0.00,VWS V14.01,2014-01-15 12:34:00,
2014-01-15 06:39:00,20.7,12.8,28.67,West,263,0.0,0.0,71,0.00,,---,0.00,VWS V14.01,2014-01-15 12:39:00,
2014-01-15 06:45:00,20.7,12.8,28.67,West,263,0.0,0.0,71,0.00,,---,0.00,VWS V14.01,2014-01-15 12:45:00,
2014-01-15 06:50:00,20.5,12.6,28.67,West,263,0.0,0.0,71,0.00,,---,0.00,VWS V14.01,2014-01-15 12:50:00,
2014-01-15 06:55:00,20.5,12.6,28.67,West,263,0.0,0.0,71,0.00,,---,0.00,VWS V14.01,2014-01-15 12:55:00,
2014-01-15 07:00:00,20.3,12.4,28.67,West,263,0.0,0.0,71,0.00,,---,0.00,VWS V14.01,2014-01-15 13:00:00,
2014-01-15 07:05:00,20.3,12.4,28.67,West,263,0.0,0.0,71,0.00,,---,0.00,VWS V14.01,2014-01-15 13:05:00,
2014-01-15 07:10:00,20.3,12.4,28.67,West,263,0.0,0.0,71,0.00,,---,0.00,VWS V14.01,2014-01-15 13:10:00,
2014-01-15 07:15:00,20.1,12.2,28.67,West,263,0.0,0.0,71,0.00,,---,0.00,VWS V14.01,2014-01-15 13:15:00,
2014-01-15 07:20:00,20.1,12.6,28.67,West,263,0.0,0.0,72,0.00,,---,0.00,VWS V14.01,2014-01-15 13:20:00,
2014-01-15 07:25:00,20.1,12.6,28.67,West,263,0.0,0.0,72,0.00,,---,0.00,VWS V14.01,2014-01-15 13:25:00,
2014-01-15 07:30:00,20.3,12.7,28.67,West,263,0.0,0.0,72,0.00,,---,0.00,VWS V14.01,2014-01-15 13:30:00,
2014-01-15 07:36:00,20.1,12.6,28.67,West,263,0.0,0.0,72,0.00,,---,0.00,VWS V14.01,2014-01-15 13:36:00,
2014-01-15 07:41:00,20.1,12.6,28.67,West,263,0.0,0.0,72,0.00,,---,0.00,VWS V14.01,2014-01-15 13:41:00,
2014-01-15 07:46:00,20.1,12.6,28.67,West,263,0.0,0.0,72,0.00,,---,0.00,VWS V14.01,2014-01-15 13:46:00,
2014-01-15 07:51:00,20.1,12.9,28.67,West,263,0.0,0.0,73,0.00,,---,0.00,VWS V14.01,2014-01-15 13:51:00,
2014-01-15 07:56:00,20.3,13.0,28.67,West,263,0.0,0.0,73,0.00,,---,0.00,VWS V14.01,2014-01-15 13:56:00,
2014-01-15 08:01:00,20.7,13.4,28.67,West,263,0.0,0.0,73,0.00,,---,0.00,VWS V14.01,2014-01-15 14:01:00,
2014-01-15 08:06:00,21.2,14.2,28.67,West,263,0.0,0.0,74,0.00,,---,0.00,VWS V14.01,2014-01-15 14:06:00,
2014-01-15 08:11:00,21.6,14.6,28.64,West,263,0.0,0.0,74,0.00,,---,0.00,VWS V14.01,2014-01-15 14:11:00,
2014-01-15 08:16:00,22.1,15.1,28.64,West,263,0.0,0.0,74,0.00,,---,0.00,VWS V14.01,2014-01-15 14:16:00,
2014-01-15 08:22:00,22.6,15.9,28.64,West,263,0.0,0.0,75,0.00,,---,0.00,VWS V14.01,2014-01-15 14:22:00,
2014-01-15 08:27:00,23.4,16.9,28.64,West,263,0.0,3.1,76,0.00,,---,0.00,VWS V14.01,2014-01-15 14:27:00,
2014-01-15 08:32:00,23.9,17.8,28.64,West,263,0.0,3.1,77,0.00,,---,0.00,VWS V14.01,2014-01-15 14:32:00,
2014-01-15 08:37:00,24.4,18.3,28.64,West,263,0.0,3.1,77,0.00,,---,0.00,VWS V14.01,2014-01-15 14:37:00,
2014-01-15 08:42:00,24.8,18.9,28.64,West,263,0.0,3.1,78,0.00,,---,0.00,VWS V14.01,2014-01-15 14:42:00,
2014-01-15 08:47:00,25.2,19.3,28.64,West,263,0.0,3.1,78,0.00,,---,0.00,VWS V14.01,2014-01-15 14:47:00,
2014-01-15 08:52:00,25.3,19.5,28.64,West,263,0.0,3.1,78,0.00,,---,0.00,VWS V14.01,2014-01-15 14:52:00,
2014-01-15 08:57:00,25.7,19.8,28.67,West,263,0.0,3.1,78,0.00,,---,0.00,VWS V14.01,2014-01-15 14:57:00,
2014-01-15 09:02:00,26.1,20.1,28.67,West,263,0.0,0.0,78,0.00,,---,0.00,VWS V14.01,2014-01-15 15:02:00,
2014-01-15 09:07:00,26.2,20.3,28.67,South,189,0.0,3.6,78,0.00,,---,0.00,VWS V14.01,2014-01-15 15:07:00,
2014-01-15 09:13:00,26.4,20.5,28.64,South,189,0.0,3.6,78,0.00,,---,0.00,VWS V14.01,2014-01-15 15:13:00,
2014-01-15 09:18:00,26.8,20.9,28.64,SSE,166,2.2,3.6,78,0.00,,---,0.00,VWS V14.01,2014-01-15 15:18:00,
2014-01-15 09:23:00,27.0,21.0,28.64,SSE,167,0.0,3.6,78,0.00,,---,0.00,VWS V14.01,2014-01-15 15:23:00,
2014-01-15 09:28:00,27.1,21.2,28.64,SSE,167,0.0,3.6,78,0.00,,---,0.00,VWS V14.01,2014-01-15 15:28:00,
2014-01-15 09:33:00,27.5,21.5,28.64,SSE,166,2.2,3.6,78,0.00,,---,0.00,VWS V14.01,2014-01-15 15:33:00,
2014-01-15 09:38:00,27.9,21.9,28.64,SSE,166,0.0,3.6,78,0.00,,---,0.00,VWS V14.01,2014-01-15 15:38:00,
2014-01-15 09:43:00,28.0,22.1,28.64,SSE,167,0.0,3.6,78,0.00,,---,0.00,VWS V14.01,2014-01-15 15:43:00,
2014-01-15 09:48:00,28.6,22.3,28.64,SSE,166,0.0,3.6,77,0.00,,---,0.00,VWS V14.01,2014-01-15 15:48:00,
2014-01-15 09:54:00,28.9,22.6,28.64,SSE,166,0.0,3.6,77,0.00,,---,0.00,VWS V14.01,2014-01-15 15:54:00,
2014-01-15 09:59:00,29.5,23.2,28.64,SSE,166,0.0,3.6,77,0.00,,---,0.00,VWS V14.01,2014-01-15 15:59:00,
2014-01-15 10:04:00,30.0,23.7,28.64,SSE,166,0.0,0.0,77,0.00,,---,0.00,VWS V14.01,2014-01-15 16:04:00,
2014-01-15 10:09:00,30.6,24.2,28.64,SSE,166,2.7,4.0,77,0.00,,---,0.00,VWS V14.01,2014-01-15 16:09:00,
2014-01-15 10:14:00,31.1,24.4,28.64,SSE,166,3.1,4.0,76,0.00,,---,0.00,VWS V14.01,2014-01-15 16:14:00,
2014-01-15 10:19:00,31.5,24.8,28.64,South,176,3.1,5.4,76,0.00,,---,0.00,VWS V14.01,2014-01-15 16:19:00,
2014-01-15 10:24:00,31.8,24.8,28.64,SSE,154,3.1,5.4,75,0.00,,---,0.00,VWS V14.01,2014-01-15 16:24:00,
2014-01-15 10:29:00,32.0,25.0,28.61,SSW,192,2.2,5.4,75,0.00,,---,0.00,VWS V14.01,2014-01-15 16:29:00,
2014-01-15 10:35:00,32.4,25.0,28.61,SSE,164,3.1,5.4,74,0.00,,---,0.00,VWS V14.01,2014-01-15 16:35:00,
2014-01-15 10:40:00,32.7,25.4,28.61,SE,145,2.7,5.4,74,0.00,,---,0.00,VWS V14.01,2014-01-15 16:40:00,
2014-01-15 10:45:00,33.1,25.0,28.61,SSE,155,2.7,5.8,72,0.00,,---,0.00,VWS V14.01,2014-01-15 16:45:00,
2014-01-15 10:50:00,33.4,25.1,28.61,South,173,2.7,5.8,71,0.00,,---,0.00,VWS V14.01,2014-01-15 16:50:00,
2014-01-15 10:55:00,34.0,24.9,28.61,SSW,206,3.6,5.8,69,0.00,,---,0.00,VWS V14.01,2014-01-15 16:55:00,
2014-01-15 11:00:00,34.7,24.5,28.61,South,188,4.9,5.8,66,0.00,,---,0.00,VWS V14.01,2014-01-15 17:00:00,
2014-01-15 11:06:00,35.2,24.3,28.61,SSE,165,3.1,5.8,64,0.00,,---,0.00,VWS V14.01,2014-01-15 17:06:00,
2014-01-15 11:11:00,36.1,24.8,28.61,SE,127,3.6,5.8,63,0.00,,---,0.00,VWS V14.01,2014-01-15 17:11:00,
2014-01-15 11:16:00,36.9,25.1,28.61,SSE,156,3.6,5.8,62,0.00,,---,0.00,VWS V14.01,2014-01-15 17:16:00,
2014-01-15 11:21:00,37.6,25.0,28.61,ESE,107,3.6,5.8,60,0.00,,---,0.00,VWS V14.01,2014-01-15 17:21:00,
2014-01-15 11:26:00,38.1,24.7,28.59,East,100,0.0,5.8,58,0.00,,---,0.00,VWS V14.01,2014-01-15 17:26:00,
2014-01-15 11:31:00,38.8,24.5,28.59,ESE,113,3.1,5.8,56,0.00,,---,0.00,VWS V14.01,2014-01-15 17:31:00,
2014-01-15 11:36:00,39.4,24.6,28.59,SSE,155,5.4,5.8,55,0.00,,---,0.00,VWS V14.01,2014-01-15 17:36:00,
2014-01-15 11:41:00,40.1,24.8,28.59,ESE,114,2.7,5.8,54,0.00,,---,0.00,VWS V14.01,2014-01-15 17:41:00,
2014-01-15 11:46:00,40.5,24.2,28.59,SSE,161,2.7,5.8,52,0.00,,---,0.00,VWS V14.01,2014-01-15 17:46:00,
2014-01-15 11:51:00,40.8,24.1,28.59,SSW,194,2.7,5.8,51,0.00,,---,0.00,VWS V14.01,2014-01-15 17:51:00,
2014-01-15 11:56:00,41.2,24.0,28.59,SE,143,4.9,5.8,50,0.00,,---,0.00,VWS V14.01,2014-01-15 17:56:00,
2014-01-15 12:02:00,41.7,24.0,28.59,ESE,120,3.1,4.0,49,0.00,,---,0.00,VWS V14.01,2014-01-15 18:02:00,
2014-01-15 12:07:00,42.4,24.6,28.59,SE,142,4.9,5.4,49,0.00,,---,0.00,VWS V14.01,2014-01-15 18:07:00,
2014-01-15 12:12:00,43.2,24.3,28.56,SE,141,4.0,6.3,47,0.00,,---,0.00,VWS V14.01,2014-01-15 18:12:00,
2014-01-15 12:17:00,43.9,23.4,28.56,SSE,161,6.3,6.3,44,0.00,,---,0.00,VWS V14.01,2014-01-15 18:17:00,
2014-01-15 12:22:00,44.6,22.4,28.56,SSW,210,3.6,6.3,41,0.00,,---,0.00,VWS V14.01,2014-01-15 18:22:00,
2014-01-15 12:27:00,45.1,22.3,28.53,South,191,4.0,6.3,40,0.00,,---,0.00,VWS V14.01,2014-01-15 18:27:00,
2014-01-15 12:32:00,46.0,22.5,28.53,SSW,206,2.7,6.3,39,0.00,,---,0.00,VWS V14.01,2014-01-15 18:32:00,
2014-01-15 12:37:00,46.0,21.9,28.53,South,177,5.8,8.1,38,0.00,,---,0.00,VWS V14.01,2014-01-15 18:37:00,
2014-01-15 12:43:00,46.2,21.4,28.50,SSW,206,3.1,8.1,37,0.00,,---,0.00,VWS V14.01,2014-01-15 18:43:00,
2014-01-15 12:48:00,46.2,21.4,28.50,ESE,119,5.8,8.3,37,0.00,,---,0.00,VWS V14.01,2014-01-15 18:48:00,
2014-01-15 12:53:00,46.4,21.6,28.50,SE,127,5.8,8.3,37,0.00,,---,0.00,VWS V14.01,2014-01-15 18:53:00,
2014-01-15 12:58:00,46.8,21.2,28.50,SSW,198,4.0,8.3,36,0.00,,---,0.00,VWS V14.01,2014-01-15 18:58:00,
2014-01-15 13:03:00,46.9,21.4,28.50,South,186,3.6,7.6,36,0.00,,---,0.00,VWS V14.01,2014-01-15 19:03:00,
2014-01-15 13:08:00,47.3,21.0,28.50,South,189,5.4,7.6,35,0.00,,---,0.00,VWS V14.01,2014-01-15 19:08:00,
2014-01-15 13:13:00,47.7,20.7,28.50,SW,233,5.4,7.6,34,0.00,,---,0.00,VWS V14.01,2014-01-15 19:13:00,
2014-01-15 13:18:00,47.8,20.9,28.50,SW,217,8.1,8.1,34,0.00,,---,0.00,VWS V14.01,2014-01-15 19:18:00,
2014-01-15 13:23:00,48.2,21.2,28.50,South,190,2.7,8.1,34,0.00,,---,0.00,VWS V14.01,2014-01-15 19:23:00,
2014-01-15 13:28:00,48.4,20.6,28.47,SSW,199,5.4,8.1,33,0.00,,---,0.00,VWS V14.01,2014-01-15 19:28:00,
2014-01-15 13:34:00,48.2,20.5,28.47,South,174,4.9,8.1,33,0.00,,---,0.00,VWS V14.01,2014-01-15 19:34:00,
2014-01-15 13:39:00,48.2,20.5,28.47,SW,236,5.4,8.1,33,0.00,,---,0.00,VWS V14.01,2014-01-15 19:39:00,
2014-01-15 13:44:00,47.8,20.9,28.47,SE,139,5.4,8.1,34,0.00,,---,0.00,VWS V14.01,2014-01-15 19:44:00,
2014-01-15 13:49:00,47.8,20.9,28.47,South,181,3.6,8.1,34,0.00,,---,0.00,VWS V14.01,2014-01-15 19:49:00,
2014-01-15 13:54:00,47.5,21.2,28.47,South,186,5.4,8.1,35,0.00,,---,0.00,VWS V14.01,2014-01-15 19:54:00,
2014-01-15 13:59:00,47.5,21.2,28.44,SSW,204,2.7,8.1,35,0.00,,---,0.00,VWS V14.01,2014-01-15 19:59:00,
2014-01-15 14:04:00,47.7,22.0,28.44,South,180,2.7,6.7,36,0.00,,---,0.00,VWS V14.01,2014-01-15 20:04:00,
2014-01-15 14:09:00,48.0,22.4,28.44,SW,216,4.0,6.7,36,0.00,,---,0.00,VWS V14.01,2014-01-15 20:09:00,
2014-01-15 14:14:00,48.2,21.9,28.44,SE,130,4.0,6.7,35,0.00,,---,0.00,VWS V14.01,2014-01-15 20:14:00,
2014-01-15 14:19:00,48.6,22.2,28.44,SE,146,4.0,6.7,35,0.00,,---,0.00,VWS V14.01,2014-01-15 20:19:00,
2014-01-15 14:25:00,48.9,22.5,28.44,SE,138,5.8,6.7,35,0.00,,---,0.00,VWS V14.01,2014-01-15 20:25:00,
2014-01-15 14:30:00,49.3,22.1,28.44,SW,217,2.7,9.2,34,0.00,,---,0.00,VWS V14.01,2014-01-15 20:30:00,
2014-01-15 14:35:00,49.6,22.4,28.44,SE,143,3.6,9.2,34,0.00,,---,0.00,VWS V14.01,2014-01-15 20:35:00,
2014-01-15 14:40:00,50.2,22.2,28.44,SSE,152,2.7,9.2,33,0.00,,---,0.00,VWS V14.01,2014-01-15 20:40:00,
2014-01-15 14:45:00,50.2,22.2,28.41,SSW,212,3.1,9.2,33,0.00,,---,0.00,VWS V14.01,2014-01-15 20:45:00,
2014-01-15 14:50:00,50.2,22.2,28.41,South,190,4.9,9.2,33,0.00,,---,0.00,VWS V14.01,2014-01-15 20:50:00,
2014-01-15 14:55:00,50.2,22.2,28.41,SSE,160,4.9,9.2,33,0.00,,---,0.00,VWS V14.01,2014-01-15 20:55:00,
2014-01-15 15:00:00,50.7,22.7,28.41,ESE,122,5.4,5.4,33,0.00,,---,0.00,VWS V14.01,2014-01-15 21:00:00,
2014-01-15 15:05:00,50.9,22.8,28.41,South,180,7.6,8.7,33,0.00,,---,0.00,VWS V14.01,2014-01-15 21:05:00,
2014-01-15 15:11:00,50.5,22.5,28.41,SE,132,6.3,10.5,33,0.00,,---,0.00,VWS V14.01,2014-01-15 21:11:00,
2014-01-15 15:16:00,50.4,22.4,28.41,SE,137,3.1,10.5,33,0.00,,---,0.00,VWS V14.01,2014-01-15 21:16:00,
2014-01-15 15:21:00,50.4,22.4,28.41,SSE,156,4.0,10.5,33,0.00,,---,0.00,VWS V14.01,2014-01-15 21:21:00,
2014-01-15 15:26:00,50.4,22.4,28.41,SW,226,5.8,10.5,33,0.00,,---,0.00,VWS V14.01,2014-01-15 21:26:00,
2014-01-15 15:31:00,50.9,22.8,28.41,SSE,149,3.1,10.5,33,0.00,,---,0.00,VWS V14.01,2014-01-15 21:31:00,
2014-01-15 15:36:00,51.6,23.5,28.41,South,169,3.1,10.5,33,0.00,,---,0.00,VWS V14.01,2014-01-15 21:36:00,
2014-01-15 15:41:00,52.2,24.0,28.38,SSW,198,7.6,10.5,33,0.00,,---,0.00,VWS V14.01,2014-01-15 21:41:00,
2014-01-15 15:46:00,52.3,24.1,28.38,South,176,8.1,10.5,33,0.00,,---,0.00,VWS V14.01,2014-01-15 21:46:00,
2014-01-15 15:51:00,52.5,23.5,28.38,South,170,4.0,10.5,32,0.00,,---,0.00,VWS V14.01,2014-01-15 21:51:00,
2014-01-15 15:56:00,52.9,24.6,28.38,SSE,159,4.9,10.5,33,0.00,,---,0.00,VWS V14.01,2014-01-15 21:56:00,
2014-01-15 16:02:00,52.9,24.6,28.38,SE,128,4.9,4.9,33,0.00,,---,0.00,VWS V14.01,2014-01-15 22:02:00,
2014-01-15 16:07:00,52.9,23.9,28.38,SE,138,4.0,6.7,32,0.00,,---,0.00,VWS V14.01,2014-01-15 22:07:00,
2014-01-15 16:12:00,52.3,24.1,28.38,SSE,167,3.6,7.6,33,0.00,,---,0.00,VWS V14.01,2014-01-15 22:12:00,
2014-01-15 16:17:00,51.6,23.5,28.38,SE,126,8.1,8.1,33,0.00,,---,0.00,VWS V14.01,2014-01-15 22:17:00,
2014-01-15 16:22:00,51.1,23.7,28.38,SSE,152,3.1,8.1,34,0.00,,---,0.00,VWS V14.01,2014-01-15 22:22:00,
2014-01-15 16:27:00,50.5,23.9,28.35,SSW,198,3.6,8.3,35,0.00,,---,0.00,VWS V14.01,2014-01-15 22:27:00,
2014-01-15 16:32:00,50.2,23.6,28.35,SSW,194,2.7,8.3,35,0.00,,---,0.00,VWS V14.01,2014-01-15 22:32:00,
2014-01-15 16:37:00,50.2,23.6,28.35,South,180,0.0,8.3,35,0.00,,---,0.00,VWS V14.01,2014-01-15 22:37:00,
2014-01-15 16:42:00,50.0,23.4,28.35,South,172,3.1,8.3,35,0.00,,---,0.00,VWS V14.01,2014-01-15 22:42:00,
2014-01-15 16:47:00,50.0,24.1,28.35,SSE,151,3.1,8.3,36,0.00,,---,0.00,VWS V14.01,2014-01-15 22:47:00,
2014-01-15 16:53:00,49.8,24.0,28.35,South,180,4.9,8.3,36,0.00,,---,0.00,VWS V14.01,2014-01-15 22:53:00,
2014-01-15 16:58:00,49.6,23.8,28.35,SSE,158,2.7,8.3,36,0.00,,---,0.00,VWS V14.01,2014-01-15 22:58:00,
2014-01-15 17:03:00,49.3,23.5,28.35,SSE,158,2.7,3.1,36,0.00,,---,0.00,VWS V14.01,2014-01-15 23:03:00,
2014-01-15 17:08:00,48.7,23.6,28.35,SSE,157,3.6,5.4,37,0.00,,---,0.00,VWS V14.01,2014-01-15 23:08:00,
2014-01-15 17:13:00,48.4,23.3,28.35,SE,145,3.1,5.8,37,0.00,,---,0.00,VWS V14.01,2014-01-15 23:13:00,
2014-01-15 17:18:00,48.0,23.0,28.35,SSE,147,2.7,5.8,37,0.00,,---,0.00,VWS V14.01,2014-01-15 23:18:00,
2014-01-15 17:23:00,47.7,23.3,28.35,SE,136,3.6,5.8,38,0.00,,---,0.00,VWS V14.01,2014-01-15 23:23:00,
2014-01-15 17:28:00,47.3,23.0,28.35,SE,139,3.6,5.8,38,0.00,,---,0.00,VWS V14.01,2014-01-15 23:28:00,
2014-01-15 17:33:00,47.1,22.8,28.35,SE,139,4.0,5.8,38,0.00,,---,0.00,VWS V14.01,2014-01-15 23:33:00,
2014-01-15 17:38:00,46.8,23.1,28.35,SE,135,3.6,7.2,39,0.00,,---,0.00,VWS V14.01,2014-01-15 23:38:00,
2014-01-15 17:44:00,46.6,23.0,28.32,South,190,6.7,7.6,39,0.00,,---,0.00,VWS V14.01,2014-01-15 23:44:00,
2014-01-15 17:49:00,46.4,22.8,28.32,SE,128,4.0,7.6,39,0.00,,---,0.00,VWS V14.01,2014-01-15 23:49:00,
2014-01-15 17:54:00,46.2,23.2,28.32,SE,146,4.9,7.6,40,0.00,,---,0.00,VWS V14.01,2014-01-15 23:54:00,
2014-01-15 17:59:00,46.0,23.1,28.32,SE,141,4.9,7.6,40,0.00,,---,0.00,VWS V14.01,2014-01-15 23:59:00,
2014-01-15 18:04:00,45.9,23.5,28.32,SE,139,3.1,5.8,41,0.00,,---,0.00,VWS V14.01,2014-01-16 00:04:00,
2014-01-15 18:09:00,45.9,23.5,28.32,SE,136,4.0,5.8,41,0.00,,---,0.00,VWS V14.01,2014-01-16 00:09:00,
2014-01-15 18:14:00,45.7,23.4,28.32,SE,134,4.0,5.8,41,0.00,,---,0.00,VWS V14.01,2014-01-16 00:14:00,
2014-01-15 18:19:00,45.5,23.2,28.32,SE,141,4.9,6.3,41,0.00,,---,0.00,VWS V14.01,2014-01-16 00:19:00,
2014-01-15 18:24:00,45.5,23.2,28.32,SE,127,4.0,6.3,41,0.00,,---,0.00,VWS V14.01,2014-01-16 00:24:00,
2014-01-15 18:29:00,45.3,23.6,28.32,SE,142,3.6,6.3,42,0.00,,---,0.00,VWS V14.01,2014-01-16 00:29:00,
2014-01-15 18:35:00,45.1,23.4,28.32,SSE,148,2.7,6.3,42,0.00,,---,0.00,VWS V14.01,2014-01-16 00:35:00,
2014-01-15 18:40:00,45.1,23.4,28.32,SSW,198,3.1,6.3,42,0.00,,---,0.00,VWS V14.01,2014-01-16 00:40:00,
2014-01-15 18:45:00,44.8,23.7,28.32,SE,141,3.6,6.3,43,0.00,,---,0.00,VWS V14.01,2014-01-16 00:45:00,
2014-01-15 18:50:00,44.4,23.3,28.32,SE,138,4.0,6.3,43,0.00,,---,0.00,VWS V14.01,2014-01-16 00:50:00,
2014-01-15 18:55:00,44.1,23.6,28.32,SSE,152,4.9,6.3,44,0.00,,---,0.00,VWS V14.01,2014-01-16 00:55:00,
2014-01-15 19:00:00,43.7,23.2,28.29,SSE,147,3.1,4.0,44,0.00,,---,0.00,VWS V14.01,2014-01-16 01:00:00,
2014-01-15 19:05:00,43.5,23.6,28.29,SSE,147,2.7,4.0,45,0.00,,---,0.00,VWS V14.01,2014-01-16 01:05:00,
2014-01-15 19:10:00,43.5,23.6,28.29,SE,132,3.6,6.3,45,0.00,,---,0.00,VWS V14.01,2014-01-16 01:10:00,
2014-01-15 19:15:00,43.5,23.6,28.29,SSE,159,4.0,6.3,45,0.00,,---,0.00,VWS V14.01,2014-01-16 01:15:00,
2014-01-15 19:21:00,43.5,23.6,28.29,SE,143,5.8,6.3,45,0.00,,---,0.00,VWS V14.01,2014-01-16 01:21:00,
2014-01-15 19:26:00,43.5,23.6,28.29,SE,144,5.8,6.3,45,0.00,,---,0.00,VWS V14.01,2014-01-16 01:26:00,
2014-01-15 19:31:00,43.3,23.4,28.29,South,187,5.8,6.3,45,0.00,,---,0.00,VWS V14.01,2014-01-16 01:31:00,
2014-01-15 19:36:00,43.3,23.4,28.29,SSE,151,4.0,6.3,45,0.00,,---,0.00,VWS V14.01,2014-01-16 01:36:00,
2014-01-15 19:41:00,43.2,23.3,28.29,SSE,155,4.0,6.3,45,0.00,,---,0.00,VWS V14.01,2014-01-16 01:41:00,
2014-01-15 19:46:00,43.2,23.8,28.29,SE,145,4.9,6.3,46,0.00,,---,0.00,VWS V14.01,2014-01-16 01:46:00,
2014-01-15 19:51:00,43.0,23.6,28.29,South,170,3.1,6.3,46,0.00,,---,0.00,VWS V14.01,2014-01-16 01:51:00,
2014-01-15 19:56:00,42.8,24.0,28.29,SSE,160,5.4,6.3,47,0.00,,---,0.00,VWS V14.01,2014-01-16 01:56:00,
2014-01-15 20:01:00,42.6,24.3,28.29,SSE,164,6.3,6.3,48,0.00,,---,0.00,VWS V14.01,2014-01-16 02:01:00,
2014-01-15 20:07:00,42.4,24.1,28.29,SSE,147,4.0,6.3,48,0.00,,---,0.00,VWS V14.01,2014-01-16 02:07:00,
2014-01-15 20:12:00,42.3,24.0,28.26,South,178,3.6,6.3,48,0.00,,---,0.00,VWS V14.01,2014-01-16 02:12:00,
2014-01-15 20:17:00,42.1,24.3,28.26,SSW,198,3.1,6.3,49,0.00,,---,0.00,VWS V14.01,2014-01-16 02:17:00,
2014-01-15 20:22:00,42.1,24.3,28.26,SSE,154,3.6,8.1,49,0.00,,---,0.00,VWS V14.01,2014-01-16 02:22:00,
2014-01-15 20:27:00,41.9,24.1,28.26,SE,142,4.9,8.1,49,0.00,,---,0.00,VWS V14.01,2014-01-16 02:27:00,
2014-01-15 20:32:00,42.1,24.3,28.26,SSE,148,5.4,8.1,49,0.00,,---,0.00,VWS V14.01,2014-01-16 02:32:00,
2014-01-15 20:37:00,42.1,24.3,28.26,SSE,152,6.3,8.1,49,0.00,,---,0.00,VWS V14.01,2014-01-16 02:37:00,
2014-01-15 20:42:00,42.1,24.3,28.26,SE,130,3.1,8.1,49,0.00,,---,0.00,VWS V14.01,2014-01-16 02:42:00,
2014-01-15 20:47:00,42.1,24.3,28.26,SE,124,4.0,8.1,49,0.00,,---,0.00,VWS V14.01,2014-01-16 02:47:00,
2014-01-15 20:52:00,41.7,24.0,28.26,SSE,167,2.7,8.1,49,0.00,,---,0.00,VWS V14.01,2014-01-16 02:52:00,
2014-01-15 20:58:00,41.5,23.8,28.26,SE,141,3.1,8.1,49,0.00,,---,0.00,VWS V14.01,2014-01-16 02:58:00,
2014-01-15 21:03:00,41.2,23.5,28.26,SSE,155,2.2,3.1,49,0.00,,---,0.00,VWS V14.01,2014-01-16 03:03:00,
2014-01-15 21:08:00,40.8,23.6,28.26,SSE,168,0.0,3.6,50,0.00,,---,0.00,VWS V14.01,2014-01-16 03:08:00,
2014-01-15 21:13:00,40.6,23.5,28.26,SSE,168,0.0,3.6,50,0.00,,---,0.00,VWS V14.01,2014-01-16 03:13:00,
2014-01-15 21:18:00,40.5,23.3,28.26,SSE,168,0.0,3.6,50,0.00,,---,0.00,VWS V14.01,2014-01-16 03:18:00,
2014-01-15 21:23:00,40.5,23.8,28.26,SSE,168,0.0,3.6,51,0.00,,---,0.00,VWS V14.01,2014-01-16 03:23:00,
2014-01-15 21:28:00,40.5,23.8,28.26,South,169,3.1,4.0,51,0.00,,---,0.00,VWS V14.01,2014-01-16 03:28:00,
2014-01-15 21:33:00,40.6,24.4,28.26,NW,304,2.2,5.4,52,0.00,,---,0.00,VWS V14.01,2014-01-16 03:33:00,
2014-01-15 21:38:00,41.0,24.3,28.26,South,173,2.2,5.4,51,0.00,,---,0.00,VWS V14.01,2014-01-16 03:38:00,
2014-01-15 21:43:00,41.2,24.4,28.26,South,176,3.1,5.4,51,0.00,,---,0.00,VWS V14.01,2014-01-16 03:43:00,
2014-01-15 21:49:00,41.2,24.4,28.26,ENE,68,2.2,5.4,51,0.00,,---,0.00,VWS V14.01,2014-01-16 03:49:00,
2014-01-15 21:54:00,41.0,23.8,28.26,South,171,3.1,5.4,50,0.00,,---,0.00,VWS V14.01,2014-01-16 03:54:00,
2014-01-15 21:59:00,41.2,24.0,28.26,South,171,0.0,5.4,50,0.00,,---,0.00,VWS V14.01,2014-01-16 03:59:00,
2014-01-15 22:04:00,41.0,23.8,28.26,South,171,0.0,0.0,50,0.00,,---,0.00,VWS V14.01,2014-01-16 04:04:00,
2014-01-15 22:09:00,40.8,23.6,28.26,South,171,0.0,0.0,50,0.00,,---,0.00,VWS V14.01,2014-01-16 04:09:00,
2014-01-15 22:14:00,40.5,23.3,28.26,South,171,0.0,0.0,50,0.00,,---,0.00,VWS V14.01,2014-01-16 04:14:00,
2014-01-15 22:19:00,40.1,23.0,28.26,South,171,0.0,0.0,50,0.00,,---,0.00,VWS V14.01,2014-01-16 04:19:00,
2014-01-15 22:24:00,39.7,22.6,28.26,South,171,0.0,0.0,50,0.00,,---,0.00,VWS V14.01,2014-01-16 04:24:00,
2014-01-15 22:29:00,39.7,23.1,28.26,South,171,0.0,0.0,51,0.00,,---,0.00,VWS V14.01,2014-01-16 04:29:00,
2014-01-15 22:35:00,39.7,23.1,28.26,South,171,0.0,0.0,51,0.00,,---,0.00,VWS V14.01,2014-01-16 04:35:00,
2014-01-15 22:40:00,39.7,23.1,28.26,South,171,0.0,0.0,51,0.00,,---,0.00,VWS V14.01,2014-01-16 04:40:00,
2014-01-15 22:45:00,39.7,23.1,28.26,South,171,0.0,0.0,51,0.00,,---,0.00,VWS V14.01,2014-01-16 04:45:00,
2014-01-15 22:50:00,39.9,23.7,28.26,South,171,0.0,0.0,52,0.00,,---,0.00,VWS V14.01,2014-01-16 04:50:00,
2014-01-15 22:55:00,40.1,23.9,28.26,South,171,0.0,0.0,52,0.00,,---,0.00,VWS V14.01,2014-01-16 04:55:00,
2014-01-15 23:00:00,40.3,24.1,28.26,South,171,0.0,0.0,52,0.00,,---,0.00,VWS V14.01,2014-01-16 05:00:00,
2014-01-15 23:01:00,40.3,24.1,28.26,WSW,247,3.6,4.9,52,0.00,,---,0.00,VWS V14.01,2014-01-16 05:01:00,
2014-01-15 23:02:00,40.3,24.1,28.26,WSW,247,3.1,4.9,52,0.00,,---,0.00,VWS V14.01,2014-01-16 05:02:00,
2014-01-15 23:07:00,40.6,23.9,28.26,West,277,3.1,4.9,51,0.00,,---,0.00,VWS V14.01,2014-01-16 05:07:00,
2014-01-15 23:08:00,41.0,23.8,28.26,West,273,3.1,4.9,50,0.00,,---,0.00,VWS V14.01,2014-01-16 05:08:00,
2014-01-15 23:09:00,41.0,23.8,28.26,West,274,2.2,4.9,50,0.00,,---,0.00,VWS V14.01,2014-01-16 05:09:00,
2014-01-15 23:14:00,41.7,24.0,28.26,WSW,253,3.1,6.3,49,0.00,,---,0.00,VWS V14.01,2014-01-16 05:14:00,
2014-01-15 23:19:00,42.3,23.5,28.26,WSW,238,3.1,6.3,47,0.00,,---,0.00,VWS V14.01,2014-01-16 05:19:00,
2014-01-15 23:24:00,42.8,22.4,28.26,West,277,2.2,6.3,44,0.00,,---,0.00,VWS V14.01,2014-01-16 05:24:00,
2014-01-15 23:29:00,43.0,22.0,28.26,WSW,242,3.6,6.3,43,0.00,,---,0.00,VWS V14.01,2014-01-16 05:29:00,
2014-01-15 23:34:00,43.0,22.0,28.26,WSW,256,2.7,6.3,43,0.00,,---,0.00,VWS V14.01,2014-01-16 05:34:00,
2014-01-15 23:40:00,43.0,22.0,28.26,West,266,3.1,6.3,43,0.00,,---,0.00,VWS V14.01,2014-01-16 05:40:00,
2014-01-15 23:45:00,43.0,22.0,28.26,West,265,2.7,6.3,43,0.00,,---,0.00,VWS V14.01,2014-01-16 05:45:00,
2014-01-15 23:50:00,43.0,22.0,28.26,West,261,2.7,6.3,43,0.00,,---,0.00,VWS V14.01,2014-01-16 05:50:00,
2014-01-15 23:55:00,42.8,21.9,28.26,West,275,3.6,6.3,43,0.00,,---,0.00,VWS V14.01,2014-01-16 05:55:00,